createdAt,value
2023-04-08T00:01:38.545Z,8.82
2023-04-08T00:04:10.444Z,8.83
2023-04-08T00:06:41.612Z,8.83
2023-04-08T00:09:11.112Z,8.85
2023-04-08T00:11:42.219Z,8.85
2023-04-08T00:14:12.220Z,8.87
2023-04-08T00:16:42.373Z,8.88
2023-04-08T00:19:13.260Z,8.89
2023-04-08T00:21:43.795Z,8.84
2023-04-08T00:24:13.388Z,8.86
2023-04-08T00:26:42.821Z,8.88
2023-04-08T00:29:11.978Z,8.87
2023-04-08T00:31:42.900Z,8.90
2023-04-08T00:34:14.397Z,8.91
2023-04-08T00:36:45.368Z,8.89
2023-04-08T00:39:15.302Z,8.90
2023-04-08T00:41:45.827Z,8.92
2023-04-08T00:44:16.457Z,8.92
2023-04-08T00:46:45.891Z,8.91
2023-04-08T00:49:17.620Z,8.90
2023-04-08T00:51:48.039Z,8.92
2023-04-08T00:54:18.671Z,8.92
2023-04-08T00:56:48.815Z,8.93
2023-04-08T00:59:20.988Z,8.94
2023-04-08T01:02:00.692Z,8.94
2023-04-08T01:04:46.494Z,8.95
2023-04-08T01:07:21.295Z,8.96
2023-04-08T01:09:56.749Z,8.95
2023-04-08T01:12:29.997Z,8.97
2023-04-08T01:15:05.517Z,8.98
2023-04-08T01:17:36.093Z,8.95
2023-04-08T01:20:11.727Z,8.95
2023-04-08T01:23:04.844Z,8.96
2023-04-08T01:25:38.632Z,8.96
2023-04-08T01:28:15.426Z,9.00
2023-04-08T01:30:46.333Z,8.96
2023-04-08T01:33:20.307Z,8.97
2023-04-08T01:35:54.731Z,8.99
2023-04-08T01:38:27.061Z,8.96
2023-04-08T01:40:59.502Z,8.99
2023-04-08T01:43:32.276Z,8.99
2023-04-08T01:46:04.648Z,8.99
2023-04-08T01:48:34.476Z,8.98
2023-04-08T01:51:06.627Z,8.94
2023-04-08T01:53:36.672Z,8.94
2023-04-08T01:56:13.896Z,8.94
2023-04-08T01:58:53.379Z,8.93
2023-04-08T02:01:27.292Z,8.90
2023-04-08T02:04:00.326Z,8.93
2023-04-08T02:06:32.058Z,8.94
2023-04-08T02:09:02.794Z,8.94
2023-04-08T02:11:32.201Z,8.94
2023-04-08T02:14:02.698Z,8.94
2023-04-08T02:16:42.644Z,8.90
2023-04-08T02:19:19.604Z,8.89
2023-04-08T02:21:54.903Z,8.89
2023-04-08T02:24:24.652Z,8.90
2023-04-08T02:26:57.453Z,8.92
2023-04-08T02:29:32.660Z,8.92
2023-04-08T02:32:05.803Z,8.92
2023-04-08T02:34:37.737Z,8.92
2023-04-08T02:37:07.377Z,8.95
2023-04-08T02:39:37.343Z,8.97
2023-04-08T02:42:06.525Z,8.95
2023-04-08T02:44:38.692Z,8.95
2023-04-08T02:47:09.371Z,8.91
2023-04-08T02:49:39.427Z,8.94
2023-04-08T02:52:08.902Z,8.94
2023-04-08T02:54:38.815Z,8.94
2023-04-08T02:57:09.438Z,8.95
2023-04-08T02:59:41.617Z,8.89
2023-04-08T03:02:12.116Z,8.86
2023-04-08T03:04:41.578Z,8.84
2023-04-08T03:07:14.158Z,8.87
2023-04-08T03:09:42.979Z,8.86
2023-04-08T03:12:13.041Z,8.85
2023-04-08T03:14:44.275Z,8.85
2023-04-08T03:17:14.269Z,8.83
2023-04-08T03:19:44.142Z,8.85
2023-04-08T03:22:13.853Z,8.87
2023-04-08T03:24:43.344Z,8.83
2023-04-08T03:27:13.440Z,8.83
2023-04-08T03:29:46.387Z,8.79
2023-04-08T03:32:15.994Z,8.82
2023-04-08T03:34:46.050Z,8.78
2023-04-08T03:37:15.573Z,8.78
2023-04-08T03:39:43.973Z,8.80
2023-04-08T03:42:13.768Z,8.77
2023-04-08T03:44:44.529Z,8.76
2023-04-08T03:47:14.475Z,8.77
2023-04-08T03:49:44.014Z,8.83
2023-04-08T03:52:12.908Z,8.77
2023-04-08T03:54:42.951Z,8.76
2023-04-08T03:57:12.672Z,8.77
2023-04-08T03:59:44.700Z,8.79
2023-04-08T04:02:13.671Z,8.74
2023-04-08T04:04:44.344Z,8.76
2023-04-08T04:07:14.423Z,8.79
2023-04-08T04:09:43.758Z,8.78
2023-04-08T04:12:13.279Z,8.79
2023-04-08T04:14:44.600Z,8.75
2023-04-08T04:17:14.657Z,8.78
2023-04-08T04:19:44.536Z,8.74
2023-04-08T04:22:15.595Z,8.72
2023-04-08T04:24:49.195Z,8.76
2023-04-08T04:27:18.701Z,8.75
2023-04-08T04:29:51.015Z,8.76
2023-04-08T04:32:20.378Z,8.76
2023-04-08T04:34:49.866Z,8.75
2023-04-08T04:37:19.849Z,8.72
2023-04-08T04:39:48.946Z,8.71
2023-04-08T04:42:17.984Z,8.68
2023-04-08T04:44:50.064Z,8.67
2023-04-08T04:47:19.570Z,8.66
2023-04-08T04:49:49.331Z,8.67
2023-04-08T04:52:19.088Z,8.65
2023-04-08T04:54:49.150Z,8.65
2023-04-08T04:57:19.368Z,8.64
2023-04-08T04:59:50.518Z,8.64
2023-04-08T05:02:20.609Z,8.62
2023-04-08T05:04:49.804Z,8.63
2023-04-08T05:07:19.405Z,8.65
2023-04-08T05:09:48.997Z,8.65
2023-04-08T05:12:20.659Z,8.64
2023-04-08T05:14:51.012Z,8.63
2023-04-08T05:17:21.791Z,8.63
2023-04-08T05:19:52.118Z,8.63
2023-04-08T05:22:22.232Z,8.61
2023-04-08T05:24:52.629Z,8.64
2023-04-08T05:27:22.691Z,8.64
2023-04-08T05:29:54.406Z,8.61
2023-04-08T05:32:23.449Z,8.63
2023-04-08T05:34:54.301Z,8.61
2023-04-08T05:37:23.284Z,8.62
2023-04-08T05:39:54.384Z,8.62
2023-04-08T05:42:24.023Z,8.62
2023-04-08T05:44:53.862Z,8.62
2023-04-08T05:47:22.952Z,8.62
2023-04-08T05:49:53.161Z,8.63
2023-04-08T05:52:22.483Z,8.66
2023-04-08T05:54:53.179Z,8.64
2023-04-08T05:57:22.159Z,8.62
2023-04-08T05:59:51.811Z,8.67
2023-04-08T06:02:23.324Z,8.69
2023-04-08T06:04:52.976Z,8.71
2023-04-08T06:07:22.529Z,8.75
2023-04-08T06:09:51.539Z,8.79
2023-04-08T06:12:21.241Z,8.82
2023-04-08T06:14:55.210Z,8.85
2023-04-08T06:17:26.231Z,8.85
2023-04-08T06:19:58.792Z,8.83
2023-04-08T06:22:28.572Z,8.85
2023-04-08T06:24:57.669Z,8.86
2023-04-08T06:27:26.574Z,8.92
2023-04-08T06:29:56.447Z,8.84
2023-04-08T06:32:28.470Z,8.86
2023-04-08T06:34:59.247Z,8.82
2023-04-08T06:37:29.391Z,8.83
2023-04-08T06:39:59.258Z,8.80
2023-04-08T06:42:28.809Z,8.74
2023-04-08T06:45:00.692Z,8.74
2023-04-08T06:47:31.815Z,8.75
2023-04-08T06:50:01.726Z,8.78
2023-04-08T06:52:31.372Z,8.78
2023-04-08T06:55:00.425Z,8.78
2023-04-08T06:57:29.817Z,8.78
2023-04-08T07:00:00.949Z,8.82
2023-04-08T07:02:32.356Z,8.82
2023-04-08T07:05:02.650Z,8.82
2023-04-08T07:07:32.761Z,8.84
2023-04-08T07:10:02.300Z,8.87
2023-04-08T07:12:32.809Z,8.95
2023-04-08T07:15:02.050Z,8.97
2023-04-08T07:17:33.401Z,9.02
2023-04-08T07:20:04.155Z,9.06
2023-04-08T07:22:34.714Z,9.05
2023-04-08T07:25:04.394Z,9.08
2023-04-08T07:27:34.669Z,9.05
2023-04-08T07:30:04.185Z,9.12
2023-04-08T07:32:37.318Z,9.15
2023-04-08T07:35:07.339Z,9.15
2023-04-08T07:37:36.294Z,9.09
2023-04-08T07:40:07.330Z,9.08
2023-04-08T07:42:37.155Z,9.02
2023-04-08T07:45:10.614Z,9.02
2023-04-08T07:47:42.275Z,9.04
2023-04-08T07:50:12.042Z,9.07
2023-04-08T07:52:42.372Z,9.16
2023-04-08T07:55:12.199Z,9.21
2023-04-08T07:57:42.305Z,9.19
2023-04-08T08:00:21.410Z,9.26
2023-04-08T08:02:52.495Z,9.31
2023-04-08T08:05:22.896Z,9.28
2023-04-08T08:07:52.379Z,9.33
2023-04-08T08:10:21.849Z,9.35
2023-04-08T08:12:53.001Z,9.38
2023-04-08T08:15:23.050Z,9.33
2023-04-08T08:17:54.408Z,9.40
2023-04-08T08:20:23.858Z,9.43
2023-04-08T08:22:57.613Z,9.42
2023-04-08T08:25:27.727Z,9.49
2023-04-08T08:27:57.685Z,9.55
2023-04-08T08:30:28.279Z,9.57
2023-04-08T08:33:00.646Z,9.59
2023-04-08T08:35:31.104Z,9.61
2023-04-08T08:38:01.876Z,9.59
2023-04-08T08:40:31.917Z,9.63
2023-04-08T08:43:02.068Z,9.56
2023-04-08T08:45:31.310Z,9.60
2023-04-08T08:48:02.200Z,9.66
2023-04-08T08:50:31.313Z,9.67
2023-04-08T08:53:00.780Z,9.69
2023-04-08T08:56:00.006Z,9.68
2023-04-08T08:58:25.345Z,9.80
2023-04-08T09:00:55.504Z,9.85
2023-04-08T09:03:29.273Z,9.84
2023-04-08T09:06:02.250Z,9.87
2023-04-08T09:08:34.437Z,9.93
2023-04-08T09:11:17.350Z,9.98
2023-04-08T09:13:48.557Z,10.04
2023-04-08T09:16:20.769Z,10.07
2023-04-08T09:18:52.416Z,10.06
2023-04-08T09:21:27.445Z,10.05
2023-04-08T09:23:57.655Z,10.06
2023-04-08T09:26:27.702Z,10.09
2023-04-08T09:29:14.741Z,10.01
2023-04-08T09:31:58.123Z,10.03
2023-04-08T09:34:33.083Z,10.06
2023-04-08T09:37:03.071Z,10.12
2023-04-08T09:39:32.458Z,10.13
2023-04-08T09:42:08.287Z,10.15
2023-04-08T09:44:39.183Z,10.22
2023-04-08T09:47:20.207Z,10.28
2023-04-08T09:50:00.094Z,10.31
2023-04-08T09:52:40.174Z,10.39
2023-04-08T09:55:14.264Z,10.41
2023-04-08T09:57:48.571Z,10.44
2023-04-08T10:00:19.715Z,10.41
2023-04-08T10:03:05.139Z,10.39
2023-04-08T10:05:41.913Z,10.43
2023-04-08T10:08:13.047Z,10.51
2023-04-08T10:10:44.091Z,10.59
2023-04-08T10:13:14.995Z,10.67
2023-04-08T10:15:45.793Z,10.73
2023-04-08T10:18:34.590Z,10.79
2023-04-08T10:21:06.027Z,10.86
2023-04-08T10:23:59.801Z,10.93
2023-04-08T10:26:39.724Z,10.94
2023-04-08T10:29:35.476Z,10.97
2023-04-08T10:32:05.391Z,11.01
2023-04-08T10:34:36.151Z,11.11
2023-04-08T10:37:09.737Z,11.07
2023-04-08T10:39:38.852Z,11.13
2023-04-08T10:42:11.298Z,11.22
2023-04-08T10:44:46.204Z,11.31
2023-04-08T10:47:15.206Z,11.35
2023-04-08T10:49:45.220Z,11.39
2023-04-08T10:52:17.220Z,11.45
2023-04-08T10:54:50.275Z,11.50
2023-04-08T10:57:27.584Z,11.58
2023-04-08T10:59:58.008Z,11.58
2023-04-08T11:02:34.893Z,11.65
2023-04-08T11:05:04.540Z,11.68
2023-04-08T11:07:34.987Z,11.72
2023-04-08T11:10:07.272Z,11.79
2023-04-08T11:12:37.594Z,11.85
2023-04-08T11:15:11.686Z,11.81
2023-04-08T11:17:42.656Z,11.77
2023-04-08T11:20:12.400Z,11.76
2023-04-08T11:22:44.606Z,11.83
2023-04-08T11:25:14.444Z,11.92
2023-04-08T11:27:44.411Z,11.98
2023-04-08T11:30:16.119Z,11.99
2023-04-08T11:32:46.729Z,12.01
2023-04-08T11:35:19.278Z,12.01
2023-04-08T11:37:50.173Z,11.96
2023-04-08T11:40:24.572Z,12.05
2023-04-08T11:42:55.090Z,12.10
2023-04-08T11:45:25.929Z,12.07
2023-04-08T11:47:56.505Z,12.04
2023-04-08T11:50:27.358Z,12.08
2023-04-08T11:52:59.039Z,12.11
2023-04-08T11:55:31.293Z,12.10
2023-04-08T11:58:07.620Z,12.14
2023-04-08T12:00:37.835Z,12.08
2023-04-08T12:03:08.282Z,12.04
2023-04-08T12:05:38.236Z,11.93
2023-04-08T12:08:08.863Z,11.96
2023-04-08T12:10:39.466Z,11.89
2023-04-08T12:13:08.633Z,11.83
2023-04-08T12:15:39.031Z,11.81
2023-04-08T12:18:08.072Z,11.72
2023-04-08T12:20:37.634Z,11.73
2023-04-08T12:23:08.522Z,11.76
2023-04-08T12:25:37.985Z,11.72
2023-04-08T12:28:10.314Z,11.76
2023-04-08T12:30:40.375Z,11.82
2023-04-08T12:33:13.616Z,11.76
2023-04-08T12:35:44.102Z,11.87
2023-04-08T12:38:15.652Z,11.87
2023-04-08T12:40:45.702Z,11.82
2023-04-08T12:43:14.615Z,11.77
2023-04-08T12:45:45.045Z,11.70
2023-04-08T12:48:16.054Z,11.74
2023-04-08T12:50:46.179Z,11.73
2023-04-08T12:53:17.204Z,11.79
2023-04-08T12:55:48.726Z,11.81
2023-04-08T12:58:20.329Z,11.83
2023-04-08T13:00:52.104Z,11.86
2023-04-08T13:03:21.713Z,11.86
2023-04-08T13:05:51.446Z,11.92
2023-04-08T13:08:22.908Z,11.88
2023-04-08T13:10:51.968Z,11.88
2023-04-08T13:13:22.011Z,11.92
2023-04-08T13:15:51.012Z,11.89
2023-04-08T13:18:21.552Z,11.91
2023-04-08T13:20:51.503Z,11.94
2023-04-08T13:23:23.078Z,11.94
2023-04-08T13:25:53.074Z,12.06
2023-04-08T13:28:23.609Z,12.07
2023-04-08T13:30:54.436Z,12.11
2023-04-08T13:33:24.628Z,12.14
2023-04-08T13:35:55.170Z,12.15
2023-04-08T13:38:27.913Z,12.22
2023-04-08T13:40:57.641Z,12.30
2023-04-08T13:43:28.238Z,12.40
2023-04-08T13:45:57.771Z,12.52
2023-04-08T13:48:27.289Z,12.73
2023-04-08T13:50:56.564Z,13.03
2023-04-08T13:53:27.923Z,13.24
2023-04-08T13:55:59.610Z,13.38
2023-04-08T13:58:29.756Z,13.43
2023-04-08T14:00:59.821Z,13.43
2023-04-08T14:03:29.871Z,13.35
2023-04-08T14:06:01.714Z,13.31
2023-04-08T14:08:32.401Z,13.27
2023-04-08T14:11:01.831Z,13.20
2023-04-08T14:13:33.070Z,13.21
2023-04-08T14:16:03.724Z,13.13
2023-04-08T14:18:33.661Z,13.18
2023-04-08T14:21:02.703Z,13.14
2023-04-08T14:23:33.768Z,13.14
2023-04-08T14:26:03.497Z,13.17
2023-04-08T14:28:34.001Z,13.17
2023-04-08T14:31:05.016Z,13.16
2023-04-08T14:33:34.785Z,13.17
2023-04-08T14:36:04.266Z,13.15
2023-04-08T14:38:35.622Z,13.17
2023-04-08T14:41:05.073Z,13.09
2023-04-08T14:43:35.373Z,13.11
2023-04-08T14:46:04.860Z,13.29
2023-04-08T14:48:34.626Z,13.34
2023-04-08T14:51:03.508Z,13.46
2023-04-08T14:53:35.084Z,13.58
2023-04-08T14:56:04.745Z,13.64
2023-04-08T14:58:35.222Z,13.62
2023-04-08T15:01:05.521Z,13.65
2023-04-08T15:03:35.854Z,13.69
2023-04-08T15:06:07.369Z,13.73
2023-04-08T15:08:38.449Z,13.68
2023-04-08T15:11:07.577Z,13.63
2023-04-08T15:13:37.530Z,13.59
2023-04-08T15:16:07.128Z,13.57
2023-04-08T15:18:36.297Z,13.42
2023-04-08T15:21:06.843Z,13.38
2023-04-08T15:23:42.487Z,13.31
2023-04-08T15:26:11.805Z,13.33
2023-04-08T15:28:42.835Z,13.39
2023-04-08T15:31:12.347Z,13.33
2023-04-08T15:33:43.181Z,13.33
2023-04-08T15:36:12.704Z,13.28
2023-04-08T15:38:44.161Z,13.26
2023-04-08T15:41:18.946Z,13.31
2023-04-08T15:43:47.931Z,13.25
2023-04-08T15:46:19.908Z,13.22
2023-04-08T15:48:49.500Z,13.10
2023-04-08T15:51:20.441Z,13.08
2023-04-08T15:53:51.744Z,13.10
2023-04-08T15:56:21.500Z,13.10
2023-04-08T15:58:52.343Z,13.00
2023-04-08T16:01:23.026Z,12.96
2023-04-08T16:03:52.010Z,12.99
2023-04-08T16:06:20.982Z,12.93
2023-04-08T16:08:51.485Z,12.86
2023-04-08T16:11:22.818Z,12.87
2023-04-08T16:13:53.290Z,12.85
2023-04-08T16:16:22.750Z,12.84
2023-04-08T16:18:54.104Z,12.82
2023-04-08T16:21:24.218Z,12.79
2023-04-08T16:23:55.569Z,12.73
2023-04-08T16:26:24.513Z,12.70
2023-04-08T16:28:54.079Z,12.66
2023-04-08T16:31:24.110Z,12.65
2023-04-08T16:33:53.652Z,12.64
2023-04-08T16:36:23.433Z,12.66
2023-04-08T16:38:53.770Z,12.66
2023-04-08T16:41:23.302Z,12.63
2023-04-08T16:43:53.199Z,12.63
2023-04-08T16:46:25.207Z,12.63
2023-04-08T16:48:55.234Z,12.58
2023-04-08T16:51:24.756Z,12.59
2023-04-08T16:53:56.360Z,12.53
2023-04-08T16:56:28.021Z,12.58
2023-04-08T16:58:57.937Z,12.56
2023-04-08T17:01:27.790Z,12.50
2023-04-08T17:03:57.682Z,12.54
2023-04-08T17:06:28.081Z,12.50
2023-04-08T17:09:00.596Z,12.46
2023-04-08T17:11:29.475Z,12.49
2023-04-08T17:13:58.692Z,12.49
2023-04-08T17:16:29.043Z,12.40
2023-04-08T17:18:59.084Z,12.40
2023-04-08T17:21:29.535Z,12.41
2023-04-08T17:23:59.947Z,12.39
2023-04-08T17:26:29.417Z,12.31
2023-04-08T17:28:58.842Z,12.33
2023-04-08T17:31:30.205Z,12.36
2023-04-08T17:34:00.180Z,12.34
2023-04-08T17:36:30.600Z,12.31
2023-04-08T17:39:02.095Z,12.29
2023-04-08T17:41:39.661Z,12.24
2023-04-08T17:44:10.609Z,12.23
2023-04-08T17:46:40.711Z,12.21
2023-04-08T17:49:12.907Z,12.13
2023-04-08T17:51:42.765Z,12.04
2023-04-08T17:54:14.156Z,12.05
2023-04-08T17:56:44.952Z,12.05
2023-04-08T17:59:15.287Z,12.04
2023-04-08T18:01:45.047Z,12.03
2023-04-08T18:04:14.671Z,12.02
2023-04-08T18:06:44.251Z,11.95
2023-04-08T18:09:15.094Z,11.91
2023-04-08T18:11:44.569Z,11.88
2023-04-08T18:14:14.236Z,11.90
2023-04-08T18:16:44.261Z,11.88
2023-04-08T18:19:14.669Z,11.84
2023-04-08T18:21:45.378Z,11.80
2023-04-08T18:24:16.736Z,11.81
2023-04-08T18:26:54.323Z,11.81
2023-04-08T18:29:27.783Z,11.81
2023-04-08T18:31:56.739Z,11.80
2023-04-08T18:34:27.373Z,11.81
2023-04-08T18:36:57.345Z,11.78
2023-04-08T18:39:29.020Z,11.78
2023-04-08T18:41:59.562Z,11.77
2023-04-08T18:44:29.818Z,11.74
2023-04-08T18:46:59.714Z,11.76
2023-04-08T18:49:33.843Z,11.73
2023-04-08T18:52:03.600Z,11.72
2023-04-08T18:54:34.703Z,11.74
2023-04-08T18:57:04.476Z,11.74
2023-04-08T18:59:33.927Z,11.75
2023-04-08T19:02:03.106Z,11.73
2023-04-08T19:04:33.456Z,11.71
2023-04-08T19:07:03.014Z,11.69
2023-04-08T19:09:32.664Z,11.69
2023-04-08T19:12:03.506Z,11.68
2023-04-08T19:14:32.793Z,11.68
2023-04-08T19:17:02.272Z,11.66
2023-04-08T19:19:33.269Z,11.65
2023-04-08T19:22:06.242Z,11.63
2023-04-08T19:24:36.663Z,11.61
2023-04-08T19:27:06.839Z,11.61
2023-04-08T19:29:36.274Z,11.58
2023-04-08T19:32:05.980Z,11.53
2023-04-08T19:34:39.822Z,11.48
2023-04-08T19:37:09.202Z,11.41
2023-04-08T19:39:38.136Z,11.34
2023-04-08T19:42:08.990Z,11.27
2023-04-08T19:44:38.016Z,11.24
2023-04-08T19:47:06.998Z,11.17
2023-04-08T19:49:37.156Z,11.11
2023-04-08T19:52:06.479Z,11.03
2023-04-08T19:54:35.397Z,10.96
2023-04-08T19:57:05.317Z,10.85
2023-04-08T19:59:36.582Z,10.78
2023-04-08T20:02:06.632Z,10.68
2023-04-08T20:04:36.465Z,10.60
2023-04-08T20:07:06.472Z,10.52
2023-04-08T20:09:36.391Z,10.42
2023-04-08T20:12:06.398Z,10.33
2023-04-08T20:14:40.466Z,10.31
2023-04-08T20:17:10.038Z,10.30
2023-04-08T20:19:40.897Z,10.24
2023-04-08T20:22:11.099Z,10.22
2023-04-08T20:24:40.633Z,10.22
2023-04-08T20:27:10.002Z,10.19
2023-04-08T20:29:41.929Z,10.19
2023-04-08T20:32:11.872Z,10.16
2023-04-08T20:34:41.536Z,10.09
2023-04-08T20:37:10.549Z,10.03
2023-04-08T20:39:39.656Z,9.93
2023-04-08T20:42:10.060Z,9.90
2023-04-08T20:44:41.289Z,9.87
2023-04-08T20:47:12.347Z,9.79
2023-04-08T20:49:42.819Z,9.74
2023-04-08T20:52:11.797Z,9.71
2023-04-08T20:54:41.166Z,9.68
2023-04-08T20:57:11.601Z,9.62
2023-04-08T20:59:43.590Z,9.58
2023-04-08T21:02:13.780Z,9.50
2023-04-08T21:04:44.526Z,9.47
2023-04-08T21:07:14.432Z,9.43
2023-04-08T21:09:44.064Z,9.37
2023-04-08T21:12:14.120Z,9.37
2023-04-08T21:14:46.649Z,9.29
2023-04-08T21:17:15.576Z,9.26
2023-04-08T21:19:45.302Z,9.22
2023-04-08T21:22:17.010Z,9.22
2023-04-08T21:24:46.940Z,9.18
2023-04-08T21:27:16.371Z,9.14
2023-04-08T21:29:47.756Z,9.13
2023-04-08T21:32:16.852Z,9.13
2023-04-08T21:34:46.482Z,9.09
2023-04-08T21:37:16.095Z,9.04
2023-04-08T21:39:45.726Z,9.06
2023-04-08T21:42:15.465Z,9.04
2023-04-08T21:44:47.189Z,9.01
2023-04-08T21:47:17.286Z,8.96
2023-04-08T21:49:46.276Z,8.90
2023-04-08T21:52:16.279Z,8.90
2023-04-08T21:54:44.697Z,8.90
2023-04-08T21:57:13.625Z,8.86
2023-04-08T21:59:43.249Z,8.83
2023-04-08T22:02:14.280Z,8.81
2023-04-08T22:04:45.380Z,8.68
2023-04-08T22:07:14.466Z,8.64
2023-04-08T22:09:43.873Z,8.57
2023-04-08T22:12:13.072Z,8.56
2023-04-08T22:14:43.544Z,8.46
2023-04-08T22:17:14.301Z,8.47
2023-04-08T22:19:44.310Z,8.45
2023-04-08T22:22:14.372Z,8.38
2023-04-08T22:24:44.798Z,8.35
2023-04-08T22:27:16.101Z,8.32
2023-04-08T22:29:45.332Z,8.28
2023-04-08T22:32:15.796Z,8.22
2023-04-08T22:34:45.870Z,8.17
2023-04-08T22:37:15.190Z,8.13
2023-04-08T22:39:45.365Z,8.06
2023-04-08T22:42:14.955Z,8.04
2023-04-08T22:44:44.354Z,8.08
2023-04-08T22:47:15.726Z,8.06
2023-04-08T22:49:46.301Z,8.04
2023-04-08T22:52:15.490Z,8.05
2023-04-08T22:54:43.931Z,8.04
2023-04-08T22:57:13.367Z,8.02
2023-04-08T22:59:42.843Z,8.05
2023-04-08T23:02:13.217Z,8.03
2023-04-08T23:04:44.420Z,8.00
2023-04-08T23:07:15.287Z,7.97
2023-04-08T23:09:45.314Z,7.92
2023-04-08T23:12:15.815Z,7.86
2023-04-08T23:14:45.867Z,7.82
2023-04-08T23:17:16.138Z,7.81
2023-04-08T23:19:47.138Z,7.77
2023-04-08T23:22:16.695Z,7.75
2023-04-08T23:24:46.348Z,7.78
2023-04-08T23:27:15.895Z,7.80
2023-04-08T23:29:44.972Z,7.81
2023-04-08T23:32:15.344Z,7.78
2023-04-08T23:34:45.622Z,7.67
2023-04-08T23:37:17.030Z,7.65
2023-04-08T23:39:46.515Z,7.65
2023-04-08T23:42:16.243Z,7.63
2023-04-08T23:44:47.930Z,7.62
2023-04-08T23:47:17.517Z,7.55
2023-04-08T23:49:49.175Z,7.55
2023-04-08T23:52:18.960Z,7.54
2023-04-08T23:54:52.017Z,7.47
2023-04-08T23:57:23.439Z,7.46
2023-04-08T23:59:53.668Z,7.43
